Time;durP1;ratioP1;P1;durP2;ratioP2;P2;SDS_P1;SDS_P2;PMS_P1;PMS_P2;Temp;Humidity;BMP_temperature;BMP_pressure;BME280_temperature;BME280_humidity;BME280_pressure;Samples;Min_cycle;Max_cycle;Signal;HPM_P1;HPM_P2
2023/01/19 00:00:47;;;;;;;1.60;1.50;;;;;-3.70;94802.00;;;;5033295;28;20242;-70
2023/01/19 00:03:16;;;;;;;1.70;1.30;;;;;-3.70;94808.00;;;;5033360;28;20725;-70
2023/01/19 00:05:44;;;;;;;1.60;1.50;;;;;-3.70;94806.00;;;;5033065;28;20191;-70
2023/01/19 00:08:14;;;;;;;7.00;2.20;;;;;-3.70;94801.00;;;;5033103;28;20215;-70
2023/01/19 00:10:43;;;;;;;1.63;1.53;;;;;-3.80;94808.00;;;;5032817;28;20284;-69
2023/01/19 00:13:11;;;;;;;1.63;1.53;;;;;-3.80;94807.00;;;;5032951;28;20241;-69
2023/01/19 00:15:38;;;;;;;1.73;1.63;;;;;-3.90;94803.00;;;;5033088;28;20196;-69
2023/01/19 00:18:05;;;;;;;1.10;1.10;;;;;-3.90;94798.00;;;;5032793;28;20187;-69
2023/01/19 00:20:35;;;;;;;2.47;2.27;;;;;-3.90;94798.00;;;;5032869;28;20265;-70
2023/01/19 00:23:03;;;;;;;1.10;1.10;;;;;-3.90;94811.00;;;;5033311;28;20192;-70
2023/01/19 00:25:30;;;;;;;1.73;1.40;;;;;-3.90;94806.00;;;;5032795;28;20199;-70
2023/01/19 00:27:58;;;;;;;1.83;1.73;;;;;-3.80;94799.00;;;;5032676;28;20216;-70
2023/01/19 00:30:25;;;;;;;0.90;0.90;;;;;-3.80;94803.00;;;;5014990;28;20277;-71
2023/01/19 00:32:52;;;;;;;2.30;2.10;;;;;-3.90;94804.00;;;;5032837;28;20246;-70
2023/01/19 00:35:20;;;;;;;1.37;1.37;;;;;-3.90;94810.00;;;;5032985;28;20611;-69
2023/01/19 00:37:49;;;;;;;1.17;1.17;;;;;-3.90;94810.00;;;;5032814;28;20196;-70
2023/01/19 00:40:16;;;;;;;2.50;2.30;;;;;-3.90;94806.00;;;;5034400;28;20219;-70
2023/01/19 00:42:44;;;;;;;2.23;2.07;;;;;-4.00;94811.00;;;;5036739;28;20203;-70
2023/01/19 00:45:13;;;;;;;3.53;2.10;;;;;-4.00;94820.00;;;;5036643;28;20198;-69
2023/01/19 00:47:40;;;;;;;1.43;1.43;;;;;-4.10;94824.00;;;;5036521;28;20228;-69
2023/01/19 00:50:10;;;;;;;1.97;1.87;;;;;-4.10;94817.00;;;;5036566;28;20223;-69
2023/01/19 00:52:38;;;;;;;1.43;1.43;;;;;-4.10;94817.00;;;;5036818;28;20200;-69
2023/01/19 00:55:08;;;;;;;5.00;1.20;;;;;-4.20;94819.00;;;;5037048;28;20190;-71
2023/01/19 00:57:36;;;;;;;1.53;1.43;;;;;-4.20;94814.00;;;;5036706;28;20176;-70
2023/01/19 01:00:05;;;;;;;1.67;1.50;;;;;-4.20;94811.00;;;;5036252;28;20293;-70
2023/01/19 01:02:33;;;;;;;1.97;1.70;;;;;-4.20;94820.00;;;;5036491;28;20610;-69
2023/01/19 01:05:01;;;;;;;1.40;1.30;;;;;-4.10;94829.00;;;;5036275;28;20202;-70
2023/01/19 01:07:30;;;;;;;2.20;2.07;;;;;-4.20;94825.00;;;;5036201;28;20308;-70
2023/01/19 01:09:57;;;;;;;2.37;2.13;;;;;-4.20;94824.00;;;;5035930;28;20716;-72
2023/01/19 01:12:26;;;;;;;2.17;1.80;;;;;-4.20;94818.00;;;;5036757;28;20192;-72
2023/01/19 01:14:54;;;;;;;2.40;2.20;;;;;-4.20;94834.00;;;;5036556;28;20194;-70
2023/01/19 01:17:23;;;;;;;1.50;1.43;;;;;-4.20;94829.00;;;;5035951;28;20227;-68
2023/01/19 01:19:51;;;;;;;2.53;2.33;;;;;-4.20;94836.00;;;;5035933;28;20215;-70
2023/01/19 01:22:19;;;;;;;1.73;1.63;;;;;-4.20;94829.00;;;;5035889;28;20214;-68
2023/01/19 01:24:46;;;;;;;1.70;1.60;;;;;-4.20;94831.00;;;;5035901;28;20245;-69
2023/01/19 01:27:13;;;;;;;2.00;1.57;;;;;-4.20;94839.00;;;;5035781;28;20203;-69
2023/01/19 01:29:45;;;;;;;0.97;0.97;;;;;-4.20;94832.00;;;;5036225;28;20206;-68
2023/01/19 01:32:12;;;;;;;2.83;2.63;;;;;-4.30;94837.00;;;;5036271;28;20241;-68
2023/01/19 01:34:40;;;;;;;1.63;1.53;;;;;-4.40;94836.00;;;;5036172;28;20657;-70
2023/01/19 01:37:08;;;;;;;1.93;1.83;;;;;-4.30;94842.00;;;;5035673;28;20679;-70
2023/01/19 01:39:36;;;;;;;1.53;1.43;;;;;-4.30;94839.00;;;;5036284;28;20707;-68
2023/01/19 01:42:04;;;;;;;1.13;1.03;;;;;-4.30;94844.00;;;;5036314;28;20203;-68
2023/01/19 01:44:52;;;;;;;1.40;1.33;;;;;-4.40;94834.00;;;;5035553;28;20198;-69
2023/01/19 01:47:25;;;;;;;1.57;1.47;;;;;-4.30;94842.00;;;;5035734;28;20209;-68
2023/01/19 01:49:57;;;;;;;0.67;0.67;;;;;-4.30;94845.00;;;;5035632;28;20226;-68
2023/01/19 01:52:27;;;;;;;1.30;1.30;;;;;-4.30;94842.00;;;;5034893;28;20266;-69
2023/01/19 01:54:56;;;;;;;1.07;1.07;;;;;-4.30;94837.00;;;;5035659;28;20650;-69
2023/01/19 01:57:26;;;;;;;1.40;1.30;;;;;-4.30;94838.00;;;;5035520;28;20603;-68
2023/01/19 01:59:56;;;;;;;1.73;1.63;;;;;-4.30;94848.00;;;;5035768;28;20285;-68
2023/01/19 02:05:16;;;;;;;1.60;1.50;;;;;-4.40;94842.00;;;;5035171;28;20186;-68
2023/01/19 02:13:20;;;;;;;2.10;1.93;;;;;-4.40;94847.00;;;;5033965;28;20224;-61
2023/01/19 02:15:50;;;;;;;1.53;1.50;;;;;-4.40;94832.00;;;;5034905;28;20266;-59
2023/01/19 02:18:18;;;;;;;1.27;1.27;;;;;-4.40;94835.00;;;;5034411;28;20232;-60
2023/01/19 02:20:54;;;;;;;1.70;1.60;;;;;-4.40;94841.00;;;;5034890;28;20201;-60
2023/01/19 02:23:37;;;;;;;1.50;1.50;;;;;-4.30;94829.00;;;;5035427;28;20179;-61
2023/01/19 02:26:08;;;;;;;1.67;1.37;;;;;-4.30;94840.00;;;;5035148;28;20240;-60
2023/01/19 02:28:39;;;;;;;1.67;1.57;;;;;-4.40;94832.00;;;;5034852;28;20209;-60
2023/01/19 02:31:07;;;;;;;2.87;2.60;;;;;-4.40;94839.00;;;;5034681;28;20286;-60
2023/01/19 02:33:34;;;;;;;1.47;1.47;;;;;-4.40;94841.00;;;;5016878;28;20610;-61
2023/01/19 02:36:03;;;;;;;2.10;2.00;;;;;-4.50;94832.00;;;;5034738;28;20248;-61
2023/01/19 02:38:33;;;;;;;1.77;1.67;;;;;-4.50;94841.00;;;;5034504;28;20257;-61
2023/01/19 02:41:02;;;;;;;1.77;1.67;;;;;-4.50;94838.00;;;;5034520;28;20215;-61
2023/01/19 02:43:31;;;;;;;1.73;1.63;;;;;-4.60;94836.00;;;;5034425;28;20199;-61
2023/01/19 02:45:59;;;;;;;0.97;0.97;;;;;-4.60;94838.00;;;;5034392;28;20192;-61
2023/01/19 02:48:26;;;;;;;1.80;1.70;;;;;-4.60;94838.00;;;;5034216;28;20222;-61
2023/01/19 02:50:58;;;;;;;3.70;1.80;;;;;-4.60;94842.00;;;;5034427;28;20550;-60
2023/01/19 02:53:58;;;;;;;2.00;1.90;;;;;-4.60;94842.00;;;;5034449;28;20265;-61
2023/01/19 02:56:45;;;;;;;1.80;1.70;;;;;-4.60;94842.00;;;;5034077;28;20254;-60
2023/01/19 02:59:23;;;;;;;11.90;2.07;;;;;-4.60;94844.00;;;;5034329;28;20187;-60
2023/01/19 03:02:07;;;;;;;1.67;1.37;;;;;-4.60;94848.00;;;;5033941;28;20288;-59
2023/01/19 03:04:49;;;;;;;1.57;1.47;;;;;-4.60;94851.00;;;;5034193;28;20186;-60
2023/01/19 03:07:24;;;;;;;1.83;1.73;;;;;-4.60;94834.00;;;;5034269;28;20627;-61
2023/01/19 03:10:00;;;;;;;1.37;1.30;;;;;-4.70;94840.00;;;;5034193;28;20204;-59
2023/01/19 03:12:39;;;;;;;3.00;2.70;;;;;-4.70;94844.00;;;;5033771;28;20232;-60
2023/01/19 03:15:17;;;;;;;1.23;1.23;;;;;-4.60;94854.00;;;;5034384;28;20190;-61
2023/01/19 03:17:48;;;;;;;1.63;1.53;;;;;-4.70;94847.00;;;;5033768;28;20193;-60
2023/01/19 03:20:21;;;;;;;3.83;2.30;;;;;-4.70;94849.00;;;;5034213;28;20187;-61
2023/01/19 03:22:52;;;;;;;2.10;1.37;;;;;-4.70;94850.00;;;;5033741;28;20222;-61
2023/01/19 03:25:24;;;;;;;2.00;1.60;;;;;-4.70;94844.00;;;;5033889;28;20183;-61
2023/01/19 03:27:57;;;;;;;1.90;1.10;;;;;-4.60;94851.00;;;;5033481;28;20187;-61
2023/01/19 03:30:27;;;;;;;1.70;1.40;;;;;-4.60;94850.00;;;;5033608;28;20195;-59
2023/01/19 03:32:59;;;;;;;2.97;2.57;;;;;-4.60;94841.00;;;;5033427;28;20257;-60
2023/01/19 03:35:31;;;;;;;3.37;2.60;;;;;-4.40;94849.00;;;;5033969;28;20188;-60
2023/01/19 03:38:00;;;;;;;1.10;1.10;;;;;-4.50;94853.00;;;;5033849;28;20237;-60
2023/01/19 03:40:31;;;;;;;1.77;1.67;;;;;-4.40;94853.00;;;;5033434;28;20195;-60
2023/01/19 03:43:00;;;;;;;0.93;0.93;;;;;-4.50;94841.00;;;;5033206;28;20207;-60
2023/01/19 03:45:29;;;;;;;1.77;1.67;;;;;-4.40;94845.00;;;;5033209;28;20732;-60
2023/01/19 03:47:58;;;;;;;1.13;1.13;;;;;-4.50;94847.00;;;;5033493;28;20199;-60
2023/01/19 03:50:28;;;;;;;1.10;1.10;;;;;-4.50;94848.00;;;;5033236;28;20250;-61
2023/01/19 03:53:06;;;;;;;11.90;1.67;;;;;-4.50;94849.00;;;;5033208;28;20309;-61
2023/01/19 03:55:36;;;;;;;1.00;1.00;;;;;-4.50;94860.00;;;;5033535;28;20184;-60
2023/01/19 03:58:03;;;;;;;1.27;1.27;;;;;-4.50;94855.00;;;;5033180;28;20236;-61
2023/01/19 04:00:31;;;;;;;1.83;1.73;;;;;-4.50;94857.00;;;;5033215;28;20286;-61
2023/01/19 04:02:59;;;;;;;5.07;2.83;;;;;-4.60;94859.00;;;;5033059;28;20688;-61
2023/01/19 04:05:26;;;;;;;1.70;1.60;;;;;-4.70;94874.00;;;;5033125;28;20199;-60
2023/01/19 04:07:53;;;;;;;1.77;1.67;;;;;-4.90;94874.00;;;;5033011;28;20195;-61
2023/01/19 04:10:22;;;;;;;1.37;1.37;;;;;-4.90;94858.00;;;;5033021;28;20203;-60
2023/01/19 04:12:56;;;;;;;1.20;1.20;;;;;-4.80;94873.00;;;;5032934;28;20227;-61
2023/01/19 04:15:24;;;;;;;1.83;1.67;;;;;-4.80;94866.00;;;;5032436;28;20186;-60
2023/01/19 04:17:51;;;;;;;1.37;1.33;;;;;-4.80;94870.00;;;;5032991;28;20244;-61
2023/01/19 04:20:20;;;;;;;1.27;1.23;;;;;-4.90;94878.00;;;;5033493;28;20220;-61
2023/01/19 04:22:48;;;;;;;1.60;1.50;;;;;-4.80;94876.00;;;;5032899;28;20288;-60
2023/01/19 04:25:16;;;;;;;1.17;1.17;;;;;-4.80;94869.00;;;;5032836;28;20264;-60
2023/01/19 04:27:43;;;;;;;1.93;1.33;;;;;-4.70;94878.00;;;;5032791;28;20247;-61
2023/01/19 04:30:13;;;;;;;1.87;1.77;;;;;-4.80;94866.00;;;;5032754;28;20278;-62
2023/01/19 04:32:40;;;;;;;2.17;2.07;;;;;-4.90;94869.00;;;;5032648;28;20754;-60
2023/01/19 04:35:08;;;;;;;1.37;1.27;;;;;-4.90;94870.00;;;;5032750;28;20654;-60
2023/01/19 04:37:35;;;;;;;1.20;1.20;;;;;-4.90;94872.00;;;;5033302;28;20190;-60
2023/01/19 04:40:04;;;;;;;1.50;1.40;;;;;-4.90;94862.00;;;;5032786;28;20191;-60
2023/01/19 04:42:31;;;;;;;1.10;1.10;;;;;-4.80;94872.00;;;;5032623;28;20219;-60
2023/01/19 04:44:59;;;;;;;2.50;1.60;;;;;-4.80;94873.00;;;;5032699;28;20268;-60
2023/01/19 04:47:27;;;;;;;1.57;1.47;;;;;-4.80;94866.00;;;;5032949;28;20622;-60
2023/01/19 04:49:55;;;;;;;1.83;1.77;;;;;-4.80;94869.00;;;;5032441;28;20586;-60
2023/01/19 04:52:22;;;;;;;9.50;1.33;;;;;-4.90;94867.00;;;;5032503;28;20214;-59
2023/01/19 04:54:49;;;;;;;2.03;1.93;;;;;-5.00;94873.00;;;;5032564;28;20632;-60
2023/01/19 04:57:16;;;;;;;1.47;1.37;;;;;-5.10;94888.00;;;;5032443;28;20194;-60
2023/01/19 04:59:44;;;;;;;1.23;1.23;;;;;-5.20;94886.00;;;;5032518;28;20198;-60
2023/01/19 05:02:11;;;;;;;1.57;1.53;;;;;-5.10;94880.00;;;;5032454;28;20231;-61
2023/01/19 05:04:40;;;;;;;3.90;1.90;;;;;-5.10;94894.00;;;;5015537;28;20200;-61
2023/01/19 05:07:07;;;;;;;1.13;1.10;;;;;-5.10;94885.00;;;;5032933;28;20194;-60
2023/01/19 05:09:34;;;;;;;3.60;2.47;;;;;-5.10;94877.00;;;;5032280;28;20219;-61
2023/01/19 05:12:02;;;;;;;1.87;1.50;;;;;-5.20;94895.00;;;;5032178;28;20222;-60
2023/01/19 05:14:30;;;;;;;1.73;1.63;;;;;-5.10;94887.00;;;;5032412;28;20212;-64
2023/01/19 05:16:57;;;;;;;3.07;2.60;;;;;-5.10;94894.00;;;;5032350;28;20205;-60
2023/01/19 05:19:24;;;;;;;1.20;1.20;;;;;-5.10;94884.00;;;;5032240;28;20195;-61
2023/01/19 05:21:53;;;;;;;1.57;1.47;;;;;-5.00;94892.00;;;;5032201;28;20212;-60
2023/01/19 05:24:20;;;;;;;2.73;2.53;;;;;-5.30;94883.00;;;;5032225;28;20727;-60
2023/01/19 05:26:48;;;;;;;2.33;2.20;;;;;-5.20;94891.00;;;;5032526;28;20244;-61
2023/01/19 05:29:15;;;;;;;1.83;1.73;;;;;-5.20;94898.00;;;;5035686;28;20221;-61
2023/01/19 05:31:43;;;;;;;2.77;2.50;;;;;-5.10;94895.00;;;;5035592;28;20239;-59
2023/01/19 05:34:12;;;;;;;2.47;2.23;;;;;-5.10;94896.00;;;;5035582;28;20229;-61
2023/01/19 05:36:39;;;;;;;1.73;1.37;;;;;-5.10;94888.00;;;;5017862;28;20218;-61
2023/01/19 05:39:08;;;;;;;1.57;1.53;;;;;-5.00;94889.00;;;;5035598;28;20197;-61
2023/01/19 05:41:36;;;;;;;3.80;2.20;;;;;-4.90;94899.00;;;;5017679;28;20222;-60
2023/01/19 05:44:03;;;;;;;2.03;1.93;;;;;-4.90;94893.00;;;;5035444;28;20198;-60
2023/01/19 05:46:31;;;;;;;2.23;2.13;;;;;-4.90;94890.00;;;;5035469;28;20227;-60
2023/01/19 05:49:00;;;;;;;1.37;1.37;;;;;-5.00;94905.00;;;;5035372;28;20284;-61
2023/01/19 05:51:33;;;;;;;3.37;3.07;;;;;-5.00;94893.00;;;;5035582;28;20291;-60
2023/01/19 05:54:01;;;;;;;1.73;1.63;;;;;-5.00;94905.00;;;;5035801;28;20195;-60
2023/01/19 05:56:29;;;;;;;1.07;1.07;;;;;-5.00;94902.00;;;;5035242;28;20583;-60
2023/01/19 05:58:57;;;;;;;1.30;1.30;;;;;-4.90;94905.00;;;;5035187;28;20194;-60
2023/01/19 06:01:24;;;;;;;1.73;1.63;;;;;-4.80;94908.00;;;;5035080;28;20226;-60
2023/01/19 06:03:52;;;;;;;2.20;2.00;;;;;-4.80;94916.00;;;;5035050;28;20194;-60
2023/01/19 06:06:19;;;;;;;2.30;2.13;;;;;-4.70;94926.00;;;;5035059;28;20205;-62
2023/01/19 06:08:46;;;;;;;1.93;1.83;;;;;-4.70;94920.00;;;;5035009;28;20257;-60
2023/01/19 06:11:14;;;;;;;2.10;2.00;;;;;-4.80;94912.00;;;;5017210;28;20722;-60
2023/01/19 06:13:42;;;;;;;1.70;1.60;;;;;-4.70;94926.00;;;;5035331;28;20688;-61
2023/01/19 06:16:10;;;;;;;1.70;1.60;;;;;-4.70;94920.00;;;;5035180;28;20207;-60
2023/01/19 06:18:37;;;;;;;1.83;1.73;;;;;-4.60;94922.00;;;;5035052;28;20524;-59
2023/01/19 06:21:06;;;;;;;2.00;1.90;;;;;-4.60;94917.00;;;;5035223;28;20219;-59
2023/01/19 06:23:34;;;;;;;1.60;1.53;;;;;-4.60;94907.00;;;;5034871;28;20551;-59
2023/01/19 06:26:02;;;;;;;1.20;1.20;;;;;-4.60;94916.00;;;;5034885;28;20196;-61
2023/01/19 06:28:30;;;;;;;1.43;1.40;;;;;-4.60;94931.00;;;;5034874;28;20194;-60
2023/01/19 06:30:59;;;;;;;1.40;1.37;;;;;-4.60;94928.00;;;;5034550;28;20640;-60
2023/01/19 06:33:27;;;;;;;1.90;1.80;;;;;-4.50;94921.00;;;;5034710;28;20191;-60
2023/01/19 06:35:55;;;;;;;1.90;1.77;;;;;-4.60;94922.00;;;;5034804;28;20203;-60
2023/01/19 06:38:23;;;;;;;1.30;1.30;;;;;-4.60;94925.00;;;;5034018;28;20651;-60
2023/01/19 06:40:54;;;;;;;1.43;1.33;;;;;-4.50;94937.00;;;;5034454;28;20196;-60
2023/01/19 06:43:21;;;;;;;1.33;1.33;;;;;-4.70;94947.00;;;;5034776;28;20677;-60
2023/01/19 06:45:49;;;;;;;2.23;2.13;;;;;-4.70;94939.00;;;;5034392;28;20194;-60
2023/01/19 06:48:18;;;;;;;1.63;1.53;;;;;-4.80;94945.00;;;;5034464;28;20655;-60
2023/01/19 06:50:46;;;;;;;1.57;1.47;;;;;-4.70;94939.00;;;;5034475;28;20218;-60
2023/01/19 06:53:15;;;;;;;1.07;1.03;;;;;-4.80;94945.00;;;;5034318;28;20198;-60
2023/01/19 06:55:42;;;;;;;1.83;1.73;;;;;-4.70;94948.00;;;;5034295;28;20248;-60
2023/01/19 06:58:10;;;;;;;3.57;2.40;;;;;-4.70;94950.00;;;;5034238;28;20657;-60
2023/01/19 07:00:38;;;;;;;1.30;1.20;;;;;-4.80;94936.00;;;;5034424;28;20190;-62
2023/01/19 07:03:06;;;;;;;1.43;1.33;;;;;-4.80;94945.00;;;;5034328;28;20559;-59
2023/01/19 07:05:37;;;;;;;1.33;1.23;;;;;-4.80;94947.00;;;;5034056;28;20193;-60
2023/01/19 07:08:04;;;;;;;1.33;1.33;;;;;-4.60;94958.00;;;;5033964;28;20203;-61
2023/01/19 07:10:32;;;;;;;1.10;1.10;;;;;-4.80;94962.00;;;;5016140;28;20710;-61
2023/01/19 07:13:00;;;;;;;1.47;1.37;;;;;-4.80;94954.00;;;;5033738;28;20221;-60
2023/01/19 07:15:27;;;;;;;1.40;1.30;;;;;-4.70;94955.00;;;;5033975;28;20207;-60
2023/01/19 07:17:58;;;;;;;1.03;1.03;;;;;-4.90;94962.00;;;;5033746;28;20631;-61
2023/01/19 07:20:26;;;;;;;1.00;1.00;;;;;-4.80;94946.00;;;;5033777;28;20179;-61
2023/01/19 07:22:57;;;;;;;0.97;0.97;;;;;-4.60;94947.00;;;;5033753;28;20219;-61
2023/01/19 07:25:25;;;;;;;1.30;1.20;;;;;-4.70;94966.00;;;;5033998;28;20186;-61
2023/01/19 07:27:56;;;;;;;1.00;1.00;;;;;-4.50;94963.00;;;;5033926;28;20197;-61
2023/01/19 07:30:23;;;;;;;1.27;1.23;;;;;-4.60;94958.00;;;;5033905;28;20669;-60
2023/01/19 07:32:50;;;;;;;1.97;1.87;;;;;-4.70;94959.00;;;;5033524;28;20212;-59
2023/01/19 07:35:18;;;;;;;1.20;1.20;;;;;-4.60;94957.00;;;;5033464;28;20201;-59
2023/01/19 07:37:45;;;;;;;2.90;2.23;;;;;-4.70;94963.00;;;;5033972;28;20194;-60
2023/01/19 07:40:14;;;;;;;1.40;1.17;;;;;-4.50;94954.00;;;;5033629;28;20195;-60
2023/01/19 07:42:47;;;;;;;1.10;1.10;;;;;-4.50;94965.00;;;;5033341;28;20227;-60
2023/01/19 07:45:15;;;;;;;1.63;1.57;;;;;-4.60;94970.00;;;;5033325;28;20210;-60
2023/01/19 07:47:43;;;;;;;2.07;1.97;;;;;-4.30;94968.00;;;;5033254;28;20685;-60
2023/01/19 07:50:12;;;;;;;2.63;2.43;;;;;-4.20;94967.00;;;;5032998;28;20224;-60
2023/01/19 07:52:39;;;;;;;2.77;2.57;;;;;-4.10;94971.00;;;;5033472;28;20605;-60
2023/01/19 07:55:08;;;;;;;1.50;1.40;;;;;-4.00;94977.00;;;;5033290;28;20281;-60
2023/01/19 07:57:37;;;;;;;1.37;1.37;;;;;-3.90;94972.00;;;;5033224;28;20203;-60
2023/01/19 08:00:07;;;;;;;2.97;1.83;;;;;-3.90;94981.00;;;;5033168;28;20195;-61
2023/01/19 08:02:35;;;;;;;2.10;2.00;;;;;-4.00;94985.00;;;;5033052;28;20633;-61
2023/01/19 08:05:03;;;;;;;1.37;1.27;;;;;-3.90;94974.00;;;;5029315;28;20205;-61
2023/01/19 08:07:30;;;;;;;1.87;1.77;;;;;-3.80;94979.00;;;;5039678;28;20206;-60
2023/01/19 08:09:58;;;;;;;1.10;1.10;;;;;-3.50;94981.00;;;;5031536;28;20218;-60
2023/01/19 08:12:25;;;;;;;1.57;1.47;;;;;-3.70;94976.00;;;;5053298;22;20227;-69
2023/01/19 08:14:54;;;;;;;1.20;1.20;;;;;-3.60;94986.00;;;;5050519;28;20209;-69
2023/01/19 08:17:21;;;;;;;1.20;1.20;;;;;-3.50;94991.00;;;;5050472;28;20210;-70
2023/01/19 08:19:49;;;;;;;1.03;1.03;;;;;-3.60;94976.00;;;;5049069;28;20281;-68
2023/01/19 08:22:16;;;;;;;1.23;1.23;;;;;-3.40;94988.00;;;;5050441;28;20218;-66
2023/01/19 08:24:44;;;;;;;3.07;1.90;;;;;-3.60;94979.00;;;;5050137;28;20674;-68
2023/01/19 08:27:11;;;;;;;3.57;1.90;;;;;-3.30;94986.00;;;;5049700;28;20199;-67
2023/01/19 08:29:39;;;;;;;1.50;1.40;;;;;-3.00;94986.00;;;;5050260;28;20219;-68
2023/01/19 08:32:07;;;;;;;1.67;1.57;;;;;-2.70;94977.00;;;;5050237;28;20218;-68
2023/01/19 08:34:35;;;;;;;1.57;1.47;;;;;-2.70;94988.00;;;;5032466;28;20213;-67
2023/01/19 08:37:02;;;;;;;4.33;2.00;;;;;-2.80;94993.00;;;;5050548;28;20603;-67
2023/01/19 08:39:30;;;;;;;0.93;0.93;;;;;-3.00;94996.00;;;;5050171;28;20257;-67
2023/01/19 08:41:59;;;;;;;1.20;1.20;;;;;-3.00;94997.00;;;;5050530;28;20219;-66
2023/01/19 08:44:27;;;;;;;4.70;1.90;;;;;-2.70;94998.00;;;;5049836;28;20203;-67
2023/01/19 08:46:55;;;;;;;1.50;1.33;;;;;-2.70;94993.00;;;;5050673;28;20668;-67
2023/01/19 08:49:23;;;;;;;0.90;0.90;;;;;-2.50;95002.00;;;;5049816;28;20723;-67
2023/01/19 08:51:51;;;;;;;1.37;1.27;;;;;-2.50;94997.00;;;;5050478;28;20234;-66
2023/01/19 08:54:20;;;;;;;1.70;1.60;;;;;-2.40;95008.00;;;;5049851;28;20192;-67
2023/01/19 08:56:47;;;;;;;1.77;1.67;;;;;-2.40;94996.00;;;;5050391;28;20249;-66
2023/01/19 08:59:15;;;;;;;0.90;0.90;;;;;-2.40;95003.00;;;;5050004;28;20207;-67
2023/01/19 09:01:43;;;;;;;1.30;1.30;;;;;-2.40;95000.00;;;;5052223;28;20227;-67
2023/01/19 09:04:10;;;;;;;1.37;1.37;;;;;-2.20;95004.00;;;;5053609;28;20214;-67
2023/01/19 09:06:39;;;;;;;1.00;1.00;;;;;-2.00;95017.00;;;;5054282;28;20211;-67
2023/01/19 09:09:07;;;;;;;1.73;1.63;;;;;-1.70;95015.00;;;;5052458;28;20558;-67
2023/01/19 09:11:34;;;;;;;2.13;1.90;;;;;-2.20;95012.00;;;;5053502;28;20227;-66
2023/01/19 09:14:04;;;;;;;1.60;1.50;;;;;-2.00;95010.00;;;;5052738;28;20274;-67
2023/01/19 09:16:31;;;;;;;2.27;1.90;;;;;-1.80;95017.00;;;;5054057;28;20292;-67
2023/01/19 09:18:59;;;;;;;1.50;1.50;;;;;-1.80;95026.00;;;;5052868;28;20681;-66
2023/01/19 09:21:27;;;;;;;1.20;1.20;;;;;-2.10;95017.00;;;;5052831;28;20223;-67
2023/01/19 09:23:56;;;;;;;1.77;1.63;;;;;-2.50;95003.00;;;;5051975;28;20209;-67
2023/01/19 09:26:23;;;;;;;1.20;1.20;;;;;-2.40;95000.00;;;;5053792;28;20585;-66
2023/01/19 09:28:51;;;;;;;1.80;1.70;;;;;-2.40;95000.00;;;;5053000;28;20738;-67
2023/01/19 09:31:19;;;;;;;1.00;1.00;;;;;-2.20;95003.00;;;;5053610;28;20285;-66
2023/01/19 09:33:46;;;;;;;0.90;0.90;;;;;-2.10;95013.00;;;;5051784;28;20200;-67
2023/01/19 09:36:13;;;;;;;1.47;1.40;;;;;-2.10;95011.00;;;;5053669;28;20306;-67
2023/01/19 09:38:41;;;;;;;1.30;1.30;;;;;-2.20;95010.00;;;;5053016;28;20200;-67
2023/01/19 09:41:19;;;;;;;1.63;1.53;;;;;-2.40;95020.00;;;;5053597;28;20558;-67
2023/01/19 09:43:52;;;;;;;1.30;1.30;;;;;-2.40;95016.00;;;;5052812;28;20197;-67
2023/01/19 09:46:23;;;;;;;1.97;1.87;;;;;-2.30;95019.00;;;;5052177;28;20658;-67
2023/01/19 09:48:52;;;;;;;1.00;1.00;;;;;-2.10;95010.00;;;;5053335;28;20711;-67
2023/01/19 09:51:23;;;;;;;1.10;1.10;;;;;-2.00;95018.00;;;;5052912;28;20215;-67
2023/01/19 09:53:59;;;;;;;1.03;1.03;;;;;-1.90;95004.00;;;;5053014;28;20673;-66
2023/01/19 09:56:29;;;;;;;1.40;1.30;;;;;-1.80;95005.00;;;;5053349;28;20596;-66
2023/01/19 09:58:57;;;;;;;1.70;1.60;;;;;-1.80;95009.00;;;;5052511;28;20248;-67
2023/01/19 10:01:39;;;;;;;1.80;1.70;;;;;-1.30;95008.00;;;;5052730;28;20204;-68
2023/01/19 10:04:22;;;;;;;2.13;2.03;;;;;-1.30;95016.00;;;;5034923;28;20249;-67
2023/01/19 10:06:52;;;;;;;1.03;1.03;;;;;-1.10;95013.00;;;;5052527;28;20241;-67
2023/01/19 10:09:24;;;;;;;1.47;1.37;;;;;-0.80;95013.00;;;;5035143;28;20215;-67
2023/01/19 10:12:02;;;;;;;0.80;0.80;;;;;-0.90;95003.00;;;;5052523;28;20798;-67
2023/01/19 10:14:34;;;;;;;1.53;1.50;;;;;-0.90;95013.00;;;;5047969;28;20188;-67
2023/01/19 10:17:16;;;;;;;1.37;1.37;;;;;-0.60;95006.00;;;;5052579;28;20659;-67
2023/01/19 10:19:47;;;;;;;1.37;1.37;;;;;-0.70;95018.00;;;;5046837;28;20200;-67
2023/01/19 10:22:21;;;;;;;1.37;1.30;;;;;-0.80;94996.00;;;;5051984;28;20637;-68
2023/01/19 10:24:51;;;;;;;0.90;0.90;;;;;-1.10;95006.00;;;;5035081;28;20196;-67
2023/01/19 10:27:24;;;;;;;1.10;1.10;;;;;-1.10;95018.00;;;;5052062;28;20188;-67
2023/01/19 10:29:52;;;;;;;1.27;1.23;;;;;-1.10;94995.00;;;;5052600;28;20267;-67
2023/01/19 10:32:22;;;;;;;1.50;1.13;;;;;-0.80;94999.00;;;;5051775;28;20215;-67
2023/01/19 10:34:51;;;;;;;1.03;1.00;;;;;-0.70;94999.00;;;;5052597;28;20674;-67
2023/01/19 10:37:28;;;;;;;1.30;1.30;;;;;-0.50;95002.00;;;;5050841;28;20215;-70
2023/01/19 10:39:58;;;;;;;1.40;1.27;;;;;-0.20;95013.00;;;;5051838;28;20200;-67
2023/01/19 10:42:30;;;;;;;1.27;1.20;;;;;-0.10;94999.00;;;;5051686;28;20269;-67
2023/01/19 10:44:57;;;;;;;4.43;1.50;;;;;0.00;95004.00;;;;5047762;28;20192;-67
2023/01/19 10:47:33;;;;;;;1.00;1.00;;;;;0.40;95008.00;;;;5050596;28;20250;-67
2023/01/19 10:50:07;;;;;;;1.27;1.17;;;;;0.70;95005.00;;;;5052158;28;20207;-67
2023/01/19 10:52:38;;;;;;;1.00;1.00;;;;;0.70;95008.00;;;;5051839;28;20228;-67
2023/01/19 10:55:07;;;;;;;0.90;0.90;;;;;0.70;95006.00;;;;5052243;28;20196;-67
2023/01/19 10:57:42;;;;;;;2.03;1.87;;;;;1.10;95000.00;;;;5051534;28;20211;-67
2023/01/19 11:00:36;;;;;;;0.93;0.93;;;;;1.70;94997.00;;;;5052221;28;20201;-67
2023/01/19 11:03:04;;;;;;;1.00;1.00;;;;;2.00;94988.00;;;;5051259;28;20218;-67
2023/01/19 11:05:35;;;;;;;0.97;0.97;;;;;2.30;94986.00;;;;5048106;28;20620;-67
2023/01/19 11:08:22;;;;;;;1.00;1.00;;;;;2.50;94996.00;;;;5051375;28;20193;-67
2023/01/19 11:10:56;;;;;;;1.37;1.27;;;;;1.30;94995.00;;;;5051608;28;20240;-67
2023/01/19 11:13:25;;;;;;;1.10;1.10;;;;;1.10;94993.00;;;;5051438;28;20298;-67
2023/01/19 11:15:56;;;;;;;0.90;0.90;;;;;1.00;95005.00;;;;5051479;28;20207;-67
2023/01/19 11:18:28;;;;;;;1.13;1.13;;;;;1.30;94997.00;;;;5051606;28;20559;-66
2023/01/19 11:20:57;;;;;;;1.03;1.03;;;;;1.10;94976.00;;;;5051032;28;20219;-67
2023/01/19 11:23:28;;;;;;;1.00;1.00;;;;;1.20;94999.00;;;;5050225;28;20217;-66
2023/01/19 11:25:59;;;;;;;0.70;0.70;;;;;0.60;94989.00;;;;5049320;28;20203;-72
2023/01/19 11:28:30;;;;;;;0.77;0.77;;;;;1.20;94983.00;;;;5051885;28;20194;-71
2023/01/19 11:31:00;;;;;;;0.90;0.90;;;;;1.20;94986.00;;;;5051256;28;20211;-71
2023/01/19 11:33:34;;;;;;;1.03;1.03;;;;;1.70;94973.00;;;;5050822;28;20699;-72
2023/01/19 11:36:07;;;;;;;1.33;1.27;;;;;1.80;94985.00;;;;5046461;28;20189;-67
2023/01/19 11:38:42;;;;;;;1.13;1.13;;;;;1.00;94980.00;;;;5051121;28;20194;-68
2023/01/19 11:41:18;;;;;;;1.00;1.00;;;;;1.20;94908.00;;;;5051400;28;20243;-71
2023/01/19 11:43:50;;;;;;;1.67;1.57;;;;;2.80;94948.00;;;;5050648;28;20281;-68
2023/01/19 11:46:17;;;;;;;1.13;1.10;;;;;1.10;94964.00;;;;5051038;28;20198;-68
2023/01/19 11:48:55;;;;;;;1.07;1.07;;;;;1.50;94964.00;;;;5051002;28;20206;-68
2023/01/19 11:51:25;;;;;;;1.37;1.37;;;;;1.70;94968.00;;;;5051384;28;20214;-69
2023/01/19 11:53:54;;;;;;;0.93;0.93;;;;;1.60;94969.00;;;;5050547;28;20234;-69
2023/01/19 11:56:24;;;;;;;1.10;1.10;;;;;1.40;94937.00;;;;5049846;28;20253;-71
2023/01/19 11:58:52;;;;;;;1.33;1.23;;;;;2.10;94950.00;;;;5050364;28;20604;-71
2023/01/19 12:01:24;;;;;;;0.90;0.90;;;;;2.50;94958.00;;;;5051069;28;20309;-72
2023/01/19 12:03:56;;;;;;;1.00;1.00;;;;;2.80;94949.00;;;;5050587;28;20282;-73
2023/01/19 12:06:29;;;;;;;1.20;1.20;;;;;3.30;94980.00;;;;5051050;28;20191;-71
2023/01/19 12:09:00;;;;;;;1.57;1.47;;;;;2.60;94966.00;;;;5050341;28;20248;-71
2023/01/19 12:11:32;;;;;;;0.80;0.80;;;;;2.10;94971.00;;;;5050797;28;20264;-69
2023/01/19 12:14:01;;;;;;;0.77;0.77;;;;;1.80;94976.00;;;;5050258;28;20194;-68
2023/01/19 12:16:31;;;;;;;3.10;1.20;;;;;1.10;94981.00;;;;5049896;28;20198;-68
2023/01/19 12:19:03;;;;;;;1.10;1.10;;;;;0.50;94980.00;;;;5047139;28;20281;-67
2023/01/19 12:21:30;;;;;;;0.80;0.80;;;;;0.50;94991.00;;;;5048612;28;20199;-67
2023/01/19 12:24:08;;;;;;;0.80;0.80;;;;;0.40;94990.00;;;;5050037;28;20201;-67
2023/01/19 12:26:43;;;;;;;1.67;1.43;;;;;0.10;94970.00;;;;5050108;28;20252;-67
2023/01/19 12:29:15;;;;;;;0.90;0.90;;;;;0.10;94979.00;;;;5050459;28;20202;-67
2023/01/19 12:31:43;;;;;;;1.13;1.03;;;;;-0.10;94988.00;;;;5050276;28;20757;-68
2023/01/19 12:34:41;;;;;;;1.53;1.00;;;;;-0.40;94986.00;;;;5050284;28;20247;-67
2023/01/19 12:37:31;;;;;;;1.67;1.10;;;;;0.00;94982.00;;;;5052426;28;20852;-68
2023/01/19 12:40:02;;;;;;;1.07;1.07;;;;;0.10;94975.00;;;;5053971;28;20270;-67